Smithfield - 24 Hour Table
Date & TimeSolar
Radiation
(W/m²)
Wind
Speed
(mph)
Wind
Direction
(degrees)
Air
Temperature
(°F)
Relative
Humidity
(%)
Precipitation
(inches)
2017/04/24 21:00 0 2.0 144 39.8 90 0.00
2017/04/24 20:00 3 2.5 58 40.1 85 0.00
2017/04/24 19:00 78 4.3 57 41.1 83 0.00
2017/04/24 18:00 27 4.5 43 40.0 90 0.07
2017/04/24 17:00 35 4.5 206 41.2 92 0.07
2017/04/24 16:00 88 6.5 199 42.8 91 0.08
2017/04/24 15:00 122 5.4 153 41.5 86 0.03
2017/04/24 14:00 205 4.1 72 44.0 90 0.07
2017/04/24 13:00 137 2.8 82 43.0 85 0.04
2017/04/24 12:00 93 5.3 117 42.4 88 0.11
2017/04/24 11:00 75 6.0 222 45.7 90 0.04
2017/04/24 10:00 125 5.6 199 46.1 72 0.00
2017/04/24 09:00 156 5.7 186 48.8 75 0.00
2017/04/24 08:00 98 6.2 128 44.0 64 0.00
2017/04/24 07:00 51 1.8 42 42.1 82 0.00
2017/04/24 06:00 5 3.7 22 42.2 77 0.00
2017/04/24 05:00 0 2.9 31 40.8 77 0.00
2017/04/24 04:00 0 2.4 39 40.7 78 0.00
2017/04/24 03:00 0 2.2 133 42.8 75 0.00
2017/04/24 02:00 0 3.5 62 41.9 69 0.00
2017/04/24 01:00 0 3.2 40 43.6 71 0.00
2017/04/24 00:00 0 3.3 56 44.6 69 0.00
2017/04/23 23:00 0 4.7 45 46.6 60 0.00
2017/04/23 22:00 0 4.1 66 45.6 58 0.00